sensor_id;sensor_type;location;lat;lon;timestamp;pressure;altitude;pressure_sealevel;temperature;humidity
73651;BME280;61944;52.538;6.108;2024-01-16T05:46:47;100577.91;;;0.31;100.00
73651;BME280;61944;52.538;6.108;2024-01-16T05:49:13;100592.81;;;0.30;100.00
73651;BME280;61944;52.538;6.108;2024-01-16T05:51:41;100586.50;;;0.38;100.00
73651;BME280;61944;52.538;6.108;2024-01-16T05:54:06;100580.91;;;0.20;100.00
73651;BME280;61944;52.538;6.108;2024-01-16T05:56:31;100577.81;;;0.13;100.00
73651;BME280;61944;52.538;6.108;2024-01-16T05:58:57;100582.06;;;0.19;100.00
73651;BME280;61944;52.538;6.108;2024-01-16T06:01:22;100574.91;;;0.18;100.00
73651;BME280;61944;52.538;6.108;2024-01-16T06:03:48;100575.94;;;0.31;100.00
73651;BME280;61944;52.538;6.108;2024-01-16T06:06:14;100582.50;;;0.44;100.00
73651;BME280;61944;52.538;6.108;2024-01-16T06:08:39;100582.16;;;0.37;100.00
73651;BME280;61944;52.538;6.108;2024-01-16T06:11:04;100582.78;;;0.34;100.00
73651;BME280;61944;52.538;6.108;2024-01-16T06:13:30;100574.66;;;0.29;100.00
73651;BME280;61944;52.538;6.108;2024-01-16T06:15:57;100580.06;;;0.43;100.00
73651;BME280;61944;52.538;6.108;2024-01-16T06:18:22;100582.41;;;0.27;100.00
73651;BME280;61944;52.538;6.108;2024-01-16T06:20:48;100579.16;;;0.25;100.00
73651;BME280;61944;52.538;6.108;2024-01-16T06:23:13;100587.31;;;0.30;100.00
73651;BME280;61944;52.538;6.108;2024-01-16T06:25:39;100588.56;;;0.24;100.00
73651;BME280;61944;52.538;6.108;2024-01-16T06:28:05;100582.56;;;0.22;100.00
73651;BME280;61944;52.538;6.108;2024-01-16T06:30:30;100580.81;;;0.26;100.00
73651;BME280;61944;52.538;6.108;2024-01-16T06:32:56;100577.91;;;0.31;100.00
73651;BME280;61944;52.538;6.108;2024-01-16T06:35:22;100580.69;;;0.39;100.00
73651;BME280;61944;52.538;6.108;2024-01-16T06:37:48;100575.84;;;0.36;100.00
73651;BME280;61944;52.538;6.108;2024-01-16T06:40:14;100586.84;;;0.36;100.00
73651;BME280;61944;52.538;6.108;2024-01-16T06:42:39;100586.88;;;0.45;100.00
73651;BME280;61944;52.538;6.108;2024-01-16T06:45:05;100590.25;;;2.86;100.00
73651;BME280;61944;52.538;6.108;2024-01-16T06:47:31;100599.19;;;0.79;100.00
73651;BME280;61944;52.538;6.108;2024-01-16T06:49:56;100593.91;;;0.60;100.00
73651;BME280;61944;52.538;6.108;2024-01-16T06:52:24;100587.59;;;0.59;100.00
73651;BME280;61944;52.538;6.108;2024-01-16T06:54:50;100588.72;;;0.58;100.00
73651;BME280;61944;52.538;6.108;2024-01-16T06:57:15;100585.44;;;0.48;100.00
73651;BME280;61944;52.538;6.108;2024-01-16T06:59:41;100590.94;;;0.48;100.00
73651;BME280;61944;52.538;6.108;2024-01-16T07:02:06;100591.31;;;0.55;100.00
73651;BME280;61944;52.538;6.108;2024-01-16T07:04:33;100590.75;;;0.44;100.00
73651;BME280;61944;52.538;6.108;2024-01-16T07:06:58;100594.88;;;0.55;100.00
73651;BME280;61944;52.538;6.108;2024-01-16T07:09:25;100586.72;;;0.50;100.00
73651;BME280;61944;52.538;6.108;2024-01-16T07:11:50;100596.97;;;0.98;100.00
73651;BME280;61944;52.538;6.108;2024-01-16T07:14:15;100596.25;;;0.75;100.00
73651;BME280;61944;52.538;6.108;2024-01-16T07:16:41;100597.84;;;0.68;100.00
73651;BME280;61944;52.538;6.108;2024-01-16T07:19:06;100599.28;;;0.65;100.00
73651;BME280;61944;52.538;6.108;2024-01-16T07:21:31;100601.25;;;0.73;100.00
73651;BME280;61944;52.538;6.108;2024-01-16T07:23:57;100604.53;;;0.44;100.00
73651;BME280;61944;52.538;6.108;2024-01-16T07:26:23;100602.16;;;0.51;100.00
73651;BME280;61944;52.538;6.108;2024-01-16T07:28:48;100605.50;;;0.48;100.00
73651;BME280;61944;52.538;6.108;2024-01-16T07:31:14;100611.13;;;0.34;100.00
73651;BME280;61944;52.538;6.108;2024-01-16T07:33:43;100605.09;;;0.55;100.00
73651;BME280;61944;52.538;6.108;2024-01-16T07:36:09;100615.06;;;0.82;100.00
73651;BME280;61944;52.538;6.108;2024-01-16T07:38:35;100614.50;;;0.63;100.00
73651;BME280;61944;52.538;6.108;2024-01-16T07:41:01;100612.50;;;0.94;100.00
73651;BME280;61944;52.538;6.108;2024-01-16T07:43:27;100612.13;;;0.70;100.00
73651;BME280;61944;52.538;6.108;2024-01-16T07:45:54;100613.00;;;0.56;100.00
73651;BME280;61944;52.538;6.108;2024-01-16T07:48:20;100618.44;;;0.39;100.00
73651;BME280;61944;52.538;6.108;2024-01-16T07:50:45;100626.19;;;0.37;100.00
73651;BME280;61944;52.538;6.108;2024-01-16T07:53:11;100618.66;;;0.51;100.00
73651;BME280;61944;52.538;6.108;2024-01-16T07:55:36;100614.78;;;0.52;100.00
73651;BME280;61944;52.538;6.108;2024-01-16T07:58:02;100614.72;;;0.44;100.00
73651;BME280;61944;52.538;6.108;2024-01-16T08:00:29;100612.19;;;0.56;100.00
73651;BME280;61944;52.538;6.108;2024-01-16T08:02:54;100617.44;;;0.35;100.00
73651;BME280;61944;52.538;6.108;2024-01-16T08:05:19;100614.00;;;0.60;100.00
73651;BME280;61944;52.538;6.108;2024-01-16T08:07:47;100627.16;;;0.64;100.00
73651;BME280;61944;52.538;6.108;2024-01-16T08:10:12;100627.72;;;0.52;100.00
73651;BME280;61944;52.538;6.108;2024-01-16T08:12:37;100620.69;;;0.37;100.00
73651;BME280;61944;52.538;6.108;2024-01-16T08:15:04;100619.94;;;0.45;100.00
73651;BME280;61944;52.538;6.108;2024-01-16T08:17:29;100628.00;;;0.42;100.00
73651;BME280;61944;52.538;6.108;2024-01-16T08:19:55;100629.31;;;0.44;100.00
73651;BME280;61944;52.538;6.108;2024-01-16T08:22:20;100621.50;;;0.37;100.00
73651;BME280;61944;52.538;6.108;2024-01-16T08:24:45;100632.06;;;0.44;100.00
73651;BME280;61944;52.538;6.108;2024-01-16T08:27:11;100629.00;;;0.46;100.00
73651;BME280;61944;52.538;6.108;2024-01-16T08:29:37;100631.63;;;0.51;100.00
73651;BME280;61944;52.538;6.108;2024-01-16T08:32:02;100634.75;;;0.35;100.00
73651;BME280;61944;52.538;6.108;2024-01-16T08:34:29;100629.69;;;0.51;100.00
73651;BME280;61944;52.538;6.108;2024-01-16T08:36:54;100630.44;;;0.43;100.00
73651;BME280;61944;52.538;6.108;2024-01-16T08:39:22;100633.44;;;0.55;100.00
73651;BME280;61944;52.538;6.108;2024-01-16T08:41:49;100630.72;;;0.64;100.00
73651;BME280;61944;52.538;6.108;2024-01-16T08:44:14;100635.03;;;0.56;100.00
73651;BME280;61944;52.538;6.108;2024-01-16T08:46:40;100637.63;;;0.53;100.00
73651;BME280;61944;52.538;6.108;2024-01-16T08:49:05;100637.94;;;0.51;100.00
73651;BME280;61944;52.538;6.108;2024-01-16T08:51:30;100634.44;;;0.59;100.00
73651;BME280;61944;52.538;6.108;2024-01-16T08:53:56;100641.19;;;0.53;100.00
73651;BME280;61944;52.538;6.108;2024-01-16T08:56:21;100637.84;;;0.65;100.00
73651;BME280;61944;52.538;6.108;2024-01-16T08:58:47;100635.03;;;0.56;100.00
73651;BME280;61944;52.538;6.108;2024-01-16T09:01:12;100637.03;;;0.65;100.00
73651;BME280;61944;52.538;6.108;2024-01-16T09:03:37;100638.94;;;0.55;100.00
73651;BME280;61944;52.538;6.108;2024-01-16T09:06:03;100638.97;;;0.64;100.00
73651;BME280;61944;52.538;6.108;2024-01-16T09:08:29;100645.06;;;0.52;100.00
73651;BME280;61944;52.538;6.108;2024-01-16T09:10:54;100640.28;;;0.67;100.00
73651;BME280;61944;52.538;6.108;2024-01-16T09:13:20;100638.16;;;0.64;100.00
73651;BME280;61944;52.538;6.108;2024-01-16T09:15:49;100634.78;;;0.67;100.00
73651;BME280;61944;52.538;6.108;2024-01-16T09:18:17;100639.31;;;0.71;100.00
73651;BME280;61944;52.538;6.108;2024-01-16T09:20:43;100648.22;;;0.68;100.00
73651;BME280;61944;52.538;6.108;2024-01-16T09:23:09;100637.69;;;0.62;100.00
73651;BME280;61944;52.538;6.108;2024-01-16T09:25:34;100642.91;;;0.72;100.00
73651;BME280;61944;52.538;6.108;2024-01-16T09:28:00;100646.50;;;0.81;100.00
73651;BME280;61944;52.538;6.108;2024-01-16T09:30:26;100645.81;;;0.75;100.00
73651;BME280;61944;52.538;6.108;2024-01-16T09:32:51;100648.91;;;0.74;100.00
73651;BME280;61944;52.538;6.108;2024-01-16T09:35:16;100653.44;;;0.70;100.00
73651;BME280;61944;52.538;6.108;2024-01-16T09:37:42;100644.69;;;0.68;100.00
73651;BME280;61944;52.538;6.108;2024-01-16T09:40:07;100646.16;;;0.74;100.00
73651;BME280;61944;52.538;6.108;2024-01-16T09:42:33;100646.94;;;0.66;100.00
73651;BME280;61944;52.538;6.108;2024-01-16T09:45:01;100646.28;;;0.69;100.00
73651;BME280;61944;52.538;6.108;2024-01-16T09:47:33;100641.34;;;0.88;100.00
73651;BME280;61944;52.538;6.108;2024-01-16T09:49:59;100646.31;;;0.77;100.00
73651;BME280;61944;52.538;6.108;2024-01-16T09:52:29;100650.38;;;0.80;100.00
73651;BME280;61944;52.538;6.108;2024-01-16T09:54:55;100657.19;;;0.74;100.00
73651;BME280;61944;52.538;6.108;2024-01-16T09:57:24;100650.72;;;0.78;100.00
73651;BME280;61944;52.538;6.108;2024-01-16T09:59:50;100645.56;;;0.86;100.00
73651;BME280;61944;52.538;6.108;2024-01-16T10:02:16;100645.66;;;0.72;100.00
73651;BME280;61944;52.538;6.108;2024-01-16T10:04:44;100634.84;;;0.84;100.00
73651;BME280;61944;52.538;6.108;2024-01-16T10:07:10;100647.84;;;0.92;100.00
73651;BME280;61944;52.538;6.108;2024-01-16T10:09:38;100638.75;;;0.83;100.00
73651;BME280;61944;52.538;6.108;2024-01-16T10:12:03;100647.19;;;0.87;100.00
73651;BME280;61944;52.538;6.108;2024-01-16T10:14:29;100637.47;;;0.89;100.00
73651;BME280;61944;52.538;6.108;2024-01-16T10:17:02;100638.13;;;0.95;100.00
73651;BME280;61944;52.538;6.108;2024-01-16T10:19:31;100637.47;;;0.89;100.00
73651;BME280;61944;52.538;6.108;2024-01-16T10:22:04;100631.19;;;0.97;100.00
73651;BME280;61944;52.538;6.108;2024-01-16T10:24:29;100627.72;;;0.83;100.00
73651;BME280;61944;52.538;6.108;2024-01-16T10:26:59;100633.78;;;1.02;100.00
73651;BME280;61944;52.538;6.108;2024-01-16T10:29:28;100626.19;;;1.17;100.00
73651;BME280;61944;52.538;6.108;2024-01-16T10:31:53;100622.94;;;1.15;100.00
73651;BME280;61944;52.538;6.108;2024-01-16T10:34:20;100625.41;;;1.16;100.00
73651;BME280;61944;52.538;6.108;2024-01-16T10:36:50;100623.44;;;1.17;100.00
73651;BME280;61944;52.538;6.108;2024-01-16T10:39:16;100612.25;;;1.22;100.00
73651;BME280;61944;52.538;6.108;2024-01-16T10:41:42;100611.28;;;1.18;100.00
73651;BME280;61944;52.538;6.108;2024-01-16T10:44:18;100612.91;;;1.19;100.00
73651;BME280;61944;52.538;6.108;2024-01-16T10:46:44;100610.16;;;1.28;100.00
73651;BME280;61944;52.538;6.108;2024-01-16T10:49:10;100604.34;;;1.38;100.00
73651;BME280;61944;52.538;6.108;2024-01-16T10:51:35;100607.44;;;1.54;100.00
73651;BME280;61944;52.538;6.108;2024-01-16T10:54:04;100600.31;;;1.53;100.00
73651;BME280;61944;52.538;6.108;2024-01-16T10:56:33;100612.63;;;1.55;100.00
73651;BME280;61944;52.538;6.108;2024-01-16T11:01:49;100603.06;;;1.44;100.00
73651;BME280;61944;52.538;6.108;2024-01-16T11:04:17;100609.34;;;1.27;100.00
73651;BME280;61944;52.538;6.108;2024-01-16T11:06:43;100601.72;;;1.33;100.00
73651;BME280;61944;52.538;6.108;2024-01-16T11:09:09;100602.69;;;1.37;100.00
73651;BME280;61944;52.538;6.108;2024-01-16T11:11:38;100599.47;;;1.35;100.00
73651;BME280;61944;52.538;6.108;2024-01-16T11:14:05;100607.75;;;1.44;100.00
73651;BME280;61944;52.538;6.108;2024-01-16T11:16:32;100606.13;;;1.34;100.00
73651;BME280;61944;52.538;6.108;2024-01-16T11:18:58;100606.09;;;1.25;100.00
73651;BME280;61944;52.538;6.108;2024-01-16T11:21:24;100592.50;;;1.37;100.00
73651;BME280;61944;52.538;6.108;2024-01-16T11:23:50;100602.22;;;1.26;100.00
73651;BME280;61944;52.538;6.108;2024-01-16T11:26:29;100598.66;;;1.43;100.00
73651;BME280;61944;52.538;6.108;2024-01-16T11:28:58;100596.25;;;1.41;100.00
73651;BME280;61944;52.538;6.108;2024-01-16T11:31:34;100594.78;;;1.35;100.00
73651;BME280;61944;52.538;6.108;2024-01-16T11:34:01;100579.34;;;1.43;100.00
73651;BME280;61944;52.538;6.108;2024-01-16T11:39:11;100574.97;;;1.33;100.00
73651;BME280;61944;52.538;6.108;2024-01-16T11:41:57;100576.13;;;1.50;100.00
73651;BME280;61944;52.538;6.108;2024-01-16T11:44:49;100574.31;;;1.36;100.00
73651;BME280;61944;52.538;6.108;2024-01-16T11:47:20;100582.28;;;1.47;100.00
73651;BME280;61944;52.538;6.108;2024-01-16T11:49:47;100573.19;;;1.46;100.00
73651;BME280;61944;52.538;6.108;2024-01-16T11:52:13;100571.09;;;1.69;100.00
73651;BME280;61944;52.538;6.108;2024-01-16T11:54:40;100572.41;;;1.63;100.00
73651;BME280;61944;52.538;6.108;2024-01-16T12:00:32;100561.16;;;1.77;100.00
73651;BME280;61944;52.538;6.108;2024-01-16T12:03:01;100555.50;;;1.56;100.00
73651;BME280;61944;52.538;6.108;2024-01-16T12:05:28;100549.66;;;1.49;100.00
73651;BME280;61944;52.538;6.108;2024-01-16T12:07:54;100538.31;;;1.59;100.00
73651;BME280;61944;52.538;6.108;2024-01-16T12:10:22;100542.03;;;1.80;100.00
73651;BME280;61944;52.538;6.108;2024-01-16T12:12:49;100540.25;;;1.67;100.00
73651;BME280;61944;52.538;6.108;2024-01-16T12:15:19;100543.16;;;1.79;100.00
73651;BME280;61944;52.538;6.108;2024-01-16T12:20:18;100537.97;;;1.69;100.00
73651;BME280;61944;52.538;6.108;2024-01-16T12:22:44;100541.88;;;1.68;100.00
73651;BME280;61944;52.538;6.108;2024-01-16T12:25:09;100534.06;;;1.70;100.00
73651;BME280;61944;52.538;6.108;2024-01-16T12:27:36;100532.63;;;1.64;100.00
73651;BME280;61944;52.538;6.108;2024-01-16T12:30:06;100540.09;;;1.37;100.00
73651;BME280;61944;52.538;6.108;2024-01-16T12:32:32;100535.72;;;1.36;100.00
73651;BME280;61944;52.538;6.108;2024-01-16T12:34:57;100533.13;;;1.49;100.00
73651;BME280;61944;52.538;6.108;2024-01-16T12:37:23;100525.34;;;1.51;100.00
73651;BME280;61944;52.538;6.108;2024-01-16T12:39:48;100519.31;;;1.57;100.00
73651;BME280;61944;52.538;6.108;2024-01-16T12:42:17;100522.09;;;1.49;100.00
73651;BME280;61944;52.538;6.108;2024-01-16T12:44:43;100519.50;;;1.44;100.00
73651;BME280;61944;52.538;6.108;2024-01-16T12:47:08;100510.41;;;1.52;100.00
73651;BME280;61944;52.538;6.108;2024-01-16T12:49:40;100514.94;;;1.39;100.00
73651;BME280;61944;52.538;6.108;2024-01-16T12:52:21;100512.03;;;1.44;100.00
73651;BME280;61944;52.538;6.108;2024-01-16T12:54:58;100520.16;;;1.40;100.00
73651;BME280;61944;52.538;6.108;2024-01-16T12:57:25;100517.06;;;1.42;100.00
73651;BME280;61944;52.538;6.108;2024-01-16T12:59:51;100517.47;;;2.05;100.00
73651;BME280;61944;52.538;6.108;2024-01-16T13:02:24;100512.81;;;2.95;100.00
73651;BME280;61944;52.538;6.108;2024-01-16T13:05:00;100521.06;;;1.97;100.00
73651;BME280;61944;52.538;6.108;2024-01-16T13:07:28;100510.72;;;1.59;100.00
73651;BME280;61944;52.538;6.108;2024-01-16T13:10:12;100513.03;;;1.39;100.00
73651;BME280;61944;52.538;6.108;2024-01-16T13:12:41;100514.31;;;1.51;100.00
73651;BME280;61944;52.538;6.108;2024-01-16T13:15:07;100515.09;;;1.51;100.00
73651;BME280;61944;52.538;6.108;2024-01-16T13:17:35;100509.91;;;1.41;100.00
73651;BME280;61944;52.538;6.108;2024-01-16T13:20:01;100504.75;;;1.31;100.00
73651;BME280;61944;52.538;6.108;2024-01-16T13:22:28;100507.34;;;1.27;100.00
73651;BME280;61944;52.538;6.108;2024-01-16T13:24:54;100495.50;;;1.35;100.00
73651;BME280;61944;52.538;6.108;2024-01-16T13:27:19;100506.53;;;1.27;100.00
73651;BME280;61944;52.538;6.108;2024-01-16T13:29:45;100502.44;;;1.33;100.00
73651;BME280;61944;52.538;6.108;2024-01-16T13:32:10;100496.28;;;1.45;100.00
73651;BME280;61944;52.538;6.108;2024-01-16T13:34:36;100489.00;;;1.31;100.00
73651;BME280;61944;52.538;6.108;2024-01-16T13:37:03;100495.66;;;1.30;100.00
73651;BME280;61944;52.538;6.108;2024-01-16T13:39:29;100495.16;;;1.28;100.00
73651;BME280;61944;52.538;6.108;2024-01-16T13:41:57;100484.78;;;1.25;100.00
73651;BME280;61944;52.538;6.108;2024-01-16T13:44:22;100487.84;;;1.32;100.00
73651;BME280;61944;52.538;6.108;2024-01-16T13:46:48;100490.78;;;1.45;100.00
73651;BME280;61944;52.538;6.108;2024-01-16T13:49:13;100484.59;;;1.39;100.00
73651;BME280;61944;52.538;6.108;2024-01-16T13:51:39;100482.19;;;1.37;100.00
73651;BME280;61944;52.538;6.108;2024-01-16T13:54:05;100480.22;;;1.47;100.00
73651;BME280;61944;52.538;6.108;2024-01-16T13:56:30;100477.00;;;1.45;100.00
73651;BME280;61944;52.538;6.108;2024-01-16T13:58:56;100479.09;;;1.56;100.00
73651;BME280;61944;52.538;6.108;2024-01-16T14:01:21;100478.75;;;1.58;100.00
73651;BME280;61944;52.538;6.108;2024-01-16T14:03:46;100481.69;;;1.53;100.00
73651;BME280;61944;52.538;6.108;2024-01-16T14:06:12;100474.41;;;1.48;100.00
73651;BME280;61944;52.538;6.108;2024-01-16T14:08:38;100477.63;;;1.50;100.00
73651;BME280;61944;52.538;6.108;2024-01-16T14:11:04;100470.47;;;1.58;100.00
73651;BME280;61944;52.538;6.108;2024-01-16T14:13:29;100466.16;;;2.34;100.00
73651;BME280;61944;52.538;6.108;2024-01-16T14:15:55;100468.41;;;2.02;100.00
73651;BME280;61944;52.538;6.108;2024-01-16T14:18:20;100472.25;;;1.71;100.00
73651;BME280;61944;52.538;6.108;2024-01-16T14:20:47;100474.53;;;1.69;100.00
73651;BME280;61944;52.538;6.108;2024-01-16T14:23:13;100457.75;;;1.83;100.00
73651;BME280;61944;52.538;6.108;2024-01-16T14:25:38;100472.41;;;1.66;100.00
73651;BME280;61944;52.538;6.108;2024-01-16T14:28:04;100466.09;;;1.66;100.00
73651;BME280;61944;52.538;6.108;2024-01-16T14:30:30;100459.56;;;1.70;100.00
73651;BME280;61944;52.538;6.108;2024-01-16T14:32:56;100464.94;;;1.75;100.00
73651;BME280;61944;52.538;6.108;2024-01-16T14:35:22;100460.72;;;1.69;100.00
73651;BME280;61944;52.538;6.108;2024-01-16T14:37:49;100456.81;;;1.70;100.00
73651;BME280;61944;52.538;6.108;2024-01-16T14:40:15;100454.03;;;1.79;100.00
73651;BME280;61944;52.538;6.108;2024-01-16T14:42:53;100452.94;;;1.71;100.00
73651;BME280;61944;52.538;6.108;2024-01-16T14:45:23;100459.41;;;1.75;100.00
73651;BME280;61944;52.538;6.108;2024-01-16T14:47:49;100455.19;;;1.78;100.00
73651;BME280;61944;52.538;6.108;2024-01-16T14:50:16;100458.91;;;1.82;100.00
73651;BME280;61944;52.538;6.108;2024-01-16T14:52:46;100458.59;;;1.83;100.00
73651;BME280;61944;52.538;6.108;2024-01-16T14:55:12;100457.25;;;1.90;100.00
73651;BME280;61944;52.538;6.108;2024-01-16T14:57:37;100450.25;;;2.01;100.00
73651;BME280;61944;52.538;6.108;2024-01-16T15:00:11;100452.00;;;2.06;100.00
73651;BME280;61944;52.538;6.108;2024-01-16T15:02:49;100446.47;;;2.06;100.00
73651;BME280;61944;52.538;6.108;2024-01-16T15:05:16;100443.72;;;2.06;100.00
73651;BME280;61944;52.538;6.108;2024-01-16T15:07:41;100440.69;;;1.90;100.00
73651;BME280;61944;52.538;6.108;2024-01-16T15:10:09;100431.78;;;1.84;100.00
73651;BME280;61944;52.538;6.108;2024-01-16T15:12:35;100440.72;;;1.81;100.00
73651;BME280;61944;52.538;6.108;2024-01-16T15:15:01;100432.13;;;1.82;100.00
73651;BME280;61944;52.538;6.108;2024-01-16T15:17:28;100443.97;;;1.83;100.00
73651;BME280;61944;52.538;6.108;2024-01-16T15:19:54;100438.00;;;1.72;100.00
73651;BME280;61944;52.538;6.108;2024-01-16T15:22:19;100439.63;;;1.73;100.00
73651;BME280;61944;52.538;6.108;2024-01-16T15:24:44;100438.50;;;1.66;100.00
73651;BME280;61944;52.538;6.108;2024-01-16T15:27:11;100437.84;;;1.69;100.00
73651;BME280;61944;52.538;6.108;2024-01-16T15:29:36;100439.28;;;1.66;100.00
73651;BME280;61944;52.538;6.108;2024-01-16T15:32:02;100429.38;;;1.74;100.00
73651;BME280;61944;52.538;6.108;2024-01-16T15:34:27;100416.25;;;1.62;100.00
73651;BME280;61944;52.538;6.108;2024-01-16T15:36:53;100418.84;;;1.76;100.00
73651;BME280;61944;52.538;6.108;2024-01-16T15:39:18;100417.06;;;1.71;100.00
73651;BME280;61944;52.538;6.108;2024-01-16T15:41:44;100419.16;;;1.74;100.00
73651;BME280;61944;52.538;6.108;2024-01-16T15:44:10;100413.28;;;1.85;100.00
73651;BME280;61944;52.538;6.108;2024-01-16T15:47:01;100416.72;;;1.81;100.00
73651;BME280;61944;52.538;6.108;2024-01-16T15:49:28;100421.44;;;1.72;100.00
73651;BME280;61944;52.538;6.108;2024-01-16T15:51:55;100416.75;;;1.64;100.00
73651;BME280;61944;52.538;6.108;2024-01-16T15:54:21;100416.59;;;1.69;100.00
73651;BME280;61944;52.538;6.108;2024-01-16T15:56:47;100417.56;;;1.56;100.00
73651;BME280;61944;52.538;6.108;2024-01-16T15:59:12;100410.75;;;1.62;100.00
73651;BME280;61944;52.538;6.108;2024-01-16T16:01:39;100413.19;;;1.63;100.00
73651;BME280;61944;52.538;6.108;2024-01-16T16:04:05;100410.09;;;1.65;100.00
73651;BME280;61944;52.538;6.108;2024-01-16T16:06:38;100416.00;;;1.46;100.00
73651;BME280;61944;52.538;6.108;2024-01-16T16:09:04;100405.25;;;1.53;100.00
73651;BME280;61944;52.538;6.108;2024-01-16T16:11:40;100404.53;;;2.42;100.00
73651;BME280;61944;52.538;6.108;2024-01-16T16:14:14;100416.75;;;1.64;100.00
73651;BME280;61944;52.538;6.108;2024-01-16T16:16:42;100421.38;;;1.34;100.00
73651;BME280;61944;52.538;6.108;2024-01-16T16:19:08;100414.72;;;1.26;100.00
73651;BME280;61944;52.538;6.108;2024-01-16T16:21:34;100413.94;;;1.17;100.00
73651;BME280;61944;52.538;6.108;2024-01-16T16:24:00;100404.19;;;1.11;100.00
73651;BME280;61944;52.538;6.108;2024-01-16T16:26:38;100413.94;;;1.73;100.00
73651;BME280;61944;52.538;6.108;2024-01-16T16:29:20;100417.31;;;1.40;100.00
73651;BME280;61944;52.538;6.108;2024-01-16T16:31:45;100418.66;;;1.08;100.00
73651;BME280;61944;52.538;6.108;2024-01-16T16:34:12;100426.41;;;0.88;100.00
73651;BME280;61944;52.538;6.108;2024-01-16T16:36:42;100421.88;;;0.92;100.00
73651;BME280;61944;52.538;6.108;2024-01-16T16:39:08;100420.56;;;0.98;100.00
73651;BME280;61944;52.538;6.108;2024-01-16T16:41:34;100429.50;;;1.04;100.00
73651;BME280;61944;52.538;6.108;2024-01-16T16:44:01;100426.88;;;0.99;100.00
73651;BME280;61944;52.538;6.108;2024-01-16T16:46:27;100415.56;;;0.92;100.00
73651;BME280;61944;52.538;6.108;2024-01-16T16:48:53;100420.06;;;1.14;100.00
73651;BME280;61944;52.538;6.108;2024-01-16T16:51:23;100417.03;;;0.89;100.00
73651;BME280;61944;52.538;6.108;2024-01-16T16:53:48;100427.22;;;1.06;100.00
73651;BME280;61944;52.538;6.108;2024-01-16T16:56:18;100415.56;;;0.83;100.00
73651;BME280;61944;52.538;6.108;2024-01-16T16:58:46;100418.94;;;0.80;100.00
73651;BME280;61944;52.538;6.108;2024-01-16T17:01:13;100417.81;;;0.81;100.00
73651;BME280;61944;52.538;6.108;2024-01-16T17:03:41;100410.84;;;0.75;100.00
73651;BME280;61944;52.538;6.108;2024-01-16T17:06:07;100413.78;;;0.87;100.00
73651;BME280;61944;52.538;6.108;2024-01-16T17:08:36;100414.75;;;0.74;100.00
73651;BME280;61944;52.538;6.108;2024-01-16T17:11:06;100422.03;;;0.70;100.00
73651;BME280;61944;52.538;6.108;2024-01-16T17:13:36;100413.44;;;0.80;100.00
73651;BME280;61944;52.538;6.108;2024-01-16T17:16:03;100420.25;;;0.91;100.00
73651;BME280;61944;52.538;6.108;2024-01-16T17:18:30;100415.69;;;0.78;100.00
73651;BME280;61944;52.538;6.108;2024-01-16T17:20:59;100405.50;;;0.78;100.00
73651;BME280;61944;52.538;6.108;2024-01-16T17:23:25;100408.91;;;0.67;100.00
73651;BME280;61944;52.538;6.108;2024-01-16T17:25:50;100406.31;;;0.79;100.00
73651;BME280;61944;52.538;6.108;2024-01-16T17:28:16;100406.31;;;0.62;100.00
73651;BME280;61944;52.538;6.108;2024-01-16T17:30:41;100409.69;;;0.67;100.00
73651;BME280;61944;52.538;6.108;2024-01-16T17:33:08;100410.53;;;0.68;100.00
73651;BME280;61944;52.538;6.108;2024-01-16T17:35:33;100402.09;;;0.73;100.00
73651;BME280;61944;52.538;6.108;2024-01-16T17:37:59;100402.09;;;0.55;100.00
73651;BME280;61944;52.538;6.108;2024-01-16T17:40:24;100392.84;;;0.69;100.00
73651;BME280;61944;52.538;6.108;2024-01-16T17:42:49;100391.72;;;0.87;100.00
73651;BME280;61944;52.538;6.108;2024-01-16T17:45:15;100388.16;;;0.78;100.00
73651;BME280;61944;52.538;6.108;2024-01-16T17:47:40;100396.41;;;0.78;100.00
73651;BME280;61944;52.538;6.108;2024-01-16T17:50:06;100397.88;;;0.84;100.00
73651;BME280;61944;52.538;6.108;2024-01-16T17:52:37;100398.22;;;0.74;100.00
73651;BME280;61944;52.538;6.108;2024-01-16T17:55:04;100390.41;;;0.76;100.00
73651;BME280;61944;52.538;6.108;2024-01-16T17:57:31;100392.72;;;0.74;100.00
73651;BME280;61944;52.538;6.108;2024-01-16T17:59:56;100382.16;;;0.58;100.00
73651;BME280;61944;52.538;6.108;2024-01-16T18:02:21;100378.09;;;0.65;100.00
73651;BME280;61944;52.538;6.108;2024-01-16T18:04:47;100387.53;;;0.64;100.00
73651;BME280;61944;52.538;6.108;2024-01-16T18:07:13;100381.66;;;0.56;100.00
73651;BME280;61944;52.538;6.108;2024-01-16T18:09:41;100377.13;;;0.60;100.00
73651;BME280;61944;52.538;6.108;2024-01-16T18:12:06;100365.78;;;0.53;100.00
73651;BME280;61944;52.538;6.108;2024-01-16T18:14:32;100368.38;;;0.58;100.00
73651;BME280;61944;52.538;6.108;2024-01-16T18:16:57;100372.78;;;0.68;100.00
73651;BME280;61944;52.538;6.108;2024-01-16T18:19:23;100360.78;;;0.64;100.00
73651;BME280;61944;52.538;6.108;2024-01-16T18:21:51;100362.56;;;0.51;100.00
73651;BME280;61944;52.538;6.108;2024-01-16T18:24:17;100357.22;;;0.55;100.00
73651;BME280;61944;52.538;6.108;2024-01-16T18:26:43;100351.53;;;0.69;100.00
73651;BME280;61944;52.538;6.108;2024-01-16T18:29:12;100350.56;;;0.65;100.00
73651;BME280;61944;52.538;6.108;2024-01-16T18:31:38;100342.78;;;0.67;100.00
73651;BME280;61944;52.538;6.108;2024-01-16T18:34:05;100346.50;;;0.71;100.00
73651;BME280;61944;52.538;6.108;2024-01-16T18:36:34;100341.00;;;0.71;100.00
73651;BME280;61944;52.538;6.108;2024-01-16T18:39:03;100332.41;;;0.90;100.00
73651;BME280;61944;52.538;6.108;2024-01-16T18:41:32;100330.16;;;0.66;100.00
73651;BME280;61944;52.538;6.108;2024-01-16T18:43:57;100326.91;;;0.64;100.00
73651;BME280;61944;52.538;6.108;2024-01-16T18:46:22;100334.53;;;0.58;100.00